Terminal Aerodrome Forecast
Issued by NWS

Home | Current Version | Previous Version | Text Only | Print | Product List | Glossary On
Versions: 1 2 3 4 5 6 7 8 9 10 11 12 13 14
000
FTUS46 KSEW 251100
TAFPAE
TAF
KPAE 251128Z 2512/2612 VRB03KT P6SM SCT020 BKN035 OVC050
      TEMPO 2514/2518 -SHRA BKN020 OVC035
     FM251800 25005KT P6SM FEW030 BKN045 BKN100
     FM252300 34006KT P6SM SCT050 SCT100
     FM260700 VRB03KT P6SM SCT050 SCT100=

USA.gov is the U.S. government's official web portal to all federal, state and local government web resources and services.